createdAt,value
2018-11-26T00:06:13.000Z,36.691
2018-11-26T00:16:13.000Z,36.753
2018-11-26T00:26:13.000Z,36.697
2018-11-26T00:36:13.000Z,36.725
2018-11-26T00:46:13.000Z,36.743
2018-11-26T00:56:13.000Z,36.858
2018-11-26T01:06:13.000Z,36.941
2018-11-26T01:16:14.000Z,36.862
2018-11-26T01:26:14.000Z,37.108
2018-11-26T01:36:14.000Z,37.084
2018-11-26T01:46:14.000Z,36.951
2018-11-26T01:56:14.000Z,37.035
2018-11-26T02:06:14.000Z,37.225
2018-11-26T02:16:14.000Z,37.19
2018-11-26T02:26:14.000Z,37.348
2018-11-26T02:36:14.000Z,37.314
2018-11-26T02:46:14.000Z,37.517
2018-11-26T02:56:14.000Z,37.579
2018-11-26T03:06:14.000Z,37.62
2018-11-26T03:16:14.000Z,37.595
2018-11-26T03:26:14.000Z,37.562
2018-11-26T03:36:14.000Z,37.528
2018-11-26T03:46:14.000Z,37.6
2018-11-26T03:56:14.000Z,37.479
2018-11-26T04:06:14.000Z,37.532
2018-11-26T04:16:14.000Z,37.562
2018-11-26T04:26:14.000Z,37.592
2018-11-26T04:36:14.000Z,37.644
2018-11-26T04:46:14.000Z,37.729
2018-11-26T04:56:14.000Z,37.598
2018-11-26T05:06:14.000Z,37.693
2018-11-26T05:16:14.000Z,37.766
2018-11-26T05:26:14.000Z,37.454
2018-11-26T05:36:14.000Z,37.334
2018-11-26T05:46:14.000Z,36.906
2018-11-26T05:56:14.000Z,36.716
2018-11-26T06:06:14.000Z,36.088
2018-11-26T06:16:14.000Z,36.24
2018-11-26T06:26:14.000Z,36.122
2018-11-26T06:36:14.000Z,36.037
2018-11-26T06:46:14.000Z,36.038
2018-11-26T06:56:14.000Z,36.323
2018-11-26T07:06:14.000Z,36.52
2018-11-26T07:16:14.000Z,36.435
2018-11-26T07:26:14.000Z,36.49
2018-11-26T07:36:14.000Z,36.219
2018-11-26T07:46:14.000Z,35.995
2018-11-26T07:56:14.000Z,36.125
2018-11-26T08:06:14.000Z,36.093
2018-11-26T08:26:14.000Z,35.791
2018-11-26T08:36:14.000Z,35.65
2018-11-26T08:46:14.000Z,35.791
2018-11-26T08:56:14.000Z,35.543
2018-11-26T09:06:14.000Z,35.5
2018-11-26T09:16:14.000Z,35.233
2018-11-26T09:26:14.000Z,35.167
2018-11-26T09:36:15.000Z,34.747
2018-11-26T09:46:15.000Z,34.749
2018-11-26T09:56:15.000Z,34.716
2018-11-26T10:06:15.000Z,34.488
2018-11-26T10:16:15.000Z,34.271
2018-11-26T10:26:15.000Z,34.489
2018-11-26T10:36:15.000Z,34.382
2018-11-26T10:46:15.000Z,34.47
2018-11-26T10:56:15.000Z,34.58
2018-11-26T11:06:15.000Z,34.846
2018-11-26T11:16:15.000Z,35.261
2018-11-26T11:26:15.000Z,35.254
2018-11-26T11:36:15.000Z,35.852
2018-11-26T11:46:15.000Z,36.471
2018-11-26T11:56:15.000Z,36.258
2018-11-26T12:06:15.000Z,35.274
2018-11-26T12:16:15.000Z,35.089
2018-11-26T12:26:15.000Z,34.958
2018-11-26T12:36:15.000Z,35.023
2018-11-26T12:46:15.000Z,34.916
2018-11-26T12:56:15.000Z,34.818
2018-11-26T13:06:15.000Z,34.807
2018-11-26T13:16:15.000Z,34.882
2018-11-26T13:26:15.000Z,34.763
2018-11-26T13:36:15.000Z,34.806
2018-11-26T13:46:15.000Z,34.666
2018-11-26T13:56:15.000Z,34.677
2018-11-26T14:06:15.000Z,34.721
2018-11-26T14:16:15.000Z,34.688
2018-11-26T14:26:15.000Z,34.699
2018-11-26T14:36:15.000Z,34.732
2018-11-26T14:46:15.000Z,34.677
2018-11-26T14:56:15.000Z,34.677
2018-11-26T15:06:15.000Z,34.612
2018-11-26T15:16:15.000Z,34.569
2018-11-26T15:26:15.000Z,34.699
2018-11-26T15:36:15.000Z,34.752
2018-11-26T15:46:15.000Z,34.656
2018-11-26T15:56:15.000Z,34.753
2018-11-26T16:06:15.000Z,34.666
2018-11-26T16:16:15.000Z,34.677
2018-11-26T16:26:15.000Z,34.689
2018-11-26T16:36:15.000Z,34.7
2018-11-26T16:46:15.000Z,34.569
2018-11-26T16:56:15.000Z,34.767
2018-11-26T17:06:15.000Z,34.857
2018-11-26T17:16:15.000Z,36.296
2018-11-26T17:26:15.000Z,35.956
2018-11-26T17:36:15.000Z,35.601
2018-11-26T17:46:16.000Z,35.515
2018-11-26T17:56:16.000Z,35.876
2018-11-26T18:06:16.000Z,36.352
2018-11-26T18:16:16.000Z,35.812
2018-11-26T18:26:16.000Z,35.67
2018-11-26T18:36:16.000Z,35.648
2018-11-26T18:46:16.000Z,35.592
2018-11-26T18:56:16.000Z,35.603
2018-11-26T19:06:16.000Z,35.526
2018-11-26T19:16:16.000Z,35.449
2018-11-26T19:26:16.000Z,35.383
2018-11-26T19:36:16.000Z,35.383
2018-11-26T19:46:16.000Z,35.285
2018-11-26T19:56:16.000Z,35.582
2018-11-26T20:26:16.000Z,36.398
2018-11-26T20:36:16.000Z,36.335
2018-11-26T20:46:16.000Z,36.744
2018-11-26T20:56:16.000Z,36.782
2018-11-26T21:06:16.000Z,36.804
2018-11-26T21:16:16.000Z,36.727
2018-11-26T21:26:16.000Z,36.671
2018-11-26T21:36:16.000Z,36.661
2018-11-26T21:46:16.000Z,36.541
2018-11-26T21:56:16.000Z,36.496
2018-11-26T22:06:16.000Z,36.396
2018-11-26T22:16:16.000Z,36.234
2018-11-26T22:26:16.000Z,36.133
2018-11-26T22:36:16.000Z,36.165
2018-11-26T22:46:16.000Z,36.292
2018-11-26T22:56:16.000Z,36.302
2018-11-26T23:06:16.000Z,36.365
2018-11-26T23:16:16.000Z,36.35
2018-11-26T23:26:16.000Z,36.684
2018-11-26T23:36:16.000Z,36.605
2018-11-26T23:46:16.000Z,36.851
2018-11-26T23:56:16.000Z,36.652
